Smithfield, North Carolina
Current Conditions -  °F | °C
As of 9:55 AM on Friday 19 Dec 2014 (Local Time) from KJNX Reporting Station
Clear Clear  
Wind Chill: 40°   Ceiling: Unl
Heat Index: 45°   Visibility: 10mi
Dew Point: 28°   Wind: 9mph
Humidity: 53%   Direction: 360°N
Pressure: 30.19"   Gusts: 16mph
Location:  35.51°N, 78.35°W
Report Text: KJNX 191455Z AUTO 36008G14KT 10SM CLR 07/M02 A3019 RMK AO2
Loading
Personal Weather Stations






























Interactive Weather Map New forecast layout! Learn more

10-Day Weather Forecast

Advertisements
Track Severe Weather on mobile